createdAt,value
2017-03-18T00:00:35.295Z,0
2017-03-18T00:01:15.942Z,0
2017-03-18T00:01:56.529Z,0
2017-03-18T00:02:37.112Z,0
2017-03-18T00:03:17.707Z,0
2017-03-18T00:03:58.288Z,0
2017-03-18T00:04:38.878Z,0
2017-03-18T00:05:19.455Z,0
2017-03-18T00:06:00.073Z,0
2017-03-18T00:06:40.624Z,0
2017-03-18T00:07:21.238Z,0
2017-03-18T00:08:01.804Z,0
2017-03-18T00:08:42.395Z,0
2017-03-18T00:09:23.022Z,0
2017-03-18T00:10:03.621Z,0
2017-03-18T00:10:44.195Z,0
2017-03-18T00:11:24.786Z,0
2017-03-18T00:12:05.388Z,0
2017-03-18T00:12:45.980Z,0
2017-03-18T00:13:26.568Z,0
2017-03-18T00:14:07.143Z,0
2017-03-18T00:14:47.750Z,0
2017-03-18T00:15:28.343Z,0
2017-03-18T00:16:08.919Z,0
2017-03-18T00:16:49.504Z,0
2017-03-18T00:17:30.098Z,0
2017-03-18T00:18:10.696Z,0
2017-03-18T00:18:51.294Z,0
2017-03-18T00:19:31.919Z,0
2017-03-18T00:20:12.503Z,0
2017-03-18T00:20:53.093Z,0
2017-03-18T00:21:33.671Z,0
2017-03-18T00:22:14.230Z,0
2017-03-18T00:22:54.792Z,0
2017-03-18T00:23:35.398Z,0
2017-03-18T00:24:16.004Z,0
2017-03-18T00:24:56.610Z,0
2017-03-18T00:25:37.181Z,0
2017-03-18T00:26:17.782Z,0
2017-03-18T00:26:58.374Z,0
2017-03-18T00:27:38.968Z,0
2017-03-18T00:28:19.597Z,0
2017-03-18T00:29:00.150Z,0
2017-03-18T00:29:40.754Z,0
2017-03-18T00:30:21.334Z,0
2017-03-18T00:31:01.930Z,0
2017-03-18T00:31:42.508Z,0
2017-03-18T00:32:23.073Z,0
2017-03-18T00:33:03.674Z,0
2017-03-18T00:33:44.268Z,0
2017-03-18T00:34:24.874Z,0
2017-03-18T00:35:05.460Z,0
2017-03-18T00:35:46.046Z,0
2017-03-18T00:36:26.632Z,0
2017-03-18T00:37:07.245Z,0
2017-03-18T00:37:47.841Z,0
2017-03-18T00:38:28.404Z,0
2017-03-18T00:39:09.006Z,0
2017-03-18T00:39:49.590Z,0
2017-03-18T00:40:30.185Z,0
2017-03-18T00:41:10.779Z,0
2017-03-18T00:41:51.393Z,0
2017-03-18T00:42:31.971Z,0
2017-03-18T00:43:12.605Z,0
2017-03-18T00:43:53.181Z,0
2017-03-18T00:44:33.796Z,0
2017-03-18T00:45:14.370Z,0
2017-03-18T00:45:54.943Z,0
2017-03-18T00:46:35.543Z,0
2017-03-18T00:47:16.117Z,0
2017-03-18T00:47:56.703Z,0
2017-03-18T00:48:37.298Z,0
2017-03-18T00:49:17.899Z,0
2017-03-18T00:49:58.507Z,0
2017-03-18T00:50:39.116Z,0
2017-03-18T00:51:19.729Z,0
2017-03-18T00:52:00.312Z,0
2017-03-18T00:52:40.896Z,0
2017-03-18T00:53:21.474Z,0
2017-03-18T00:54:02.047Z,0
2017-03-18T00:54:42.618Z,0
2017-03-18T00:55:23.212Z,0
2017-03-18T00:56:03.814Z,0
2017-03-18T00:56:44.371Z,0
2017-03-18T00:57:24.937Z,0
2017-03-18T00:58:05.514Z,0
2017-03-18T00:58:46.118Z,0
2017-03-18T00:59:26.707Z,0
2017-03-18T01:00:07.327Z,0
2017-03-18T01:00:47.906Z,0
2017-03-18T01:01:28.525Z,0
2017-03-18T01:02:09.091Z,0
2017-03-18T01:02:49.669Z,0
2017-03-18T01:03:30.290Z,0
2017-03-18T01:04:10.869Z,0
2017-03-18T01:04:51.527Z,0
2017-03-18T01:05:32.204Z,0
2017-03-18T01:06:12.790Z,0
2017-03-18T01:06:53.357Z,0
2017-03-18T01:07:33.925Z,0
2017-03-18T01:08:14.525Z,0
2017-03-18T01:08:55.100Z,0
2017-03-18T01:09:35.742Z,0
2017-03-18T01:10:16.330Z,0
2017-03-18T01:10:56.908Z,0
2017-03-18T01:11:37.530Z,0
2017-03-18T01:12:18.101Z,0
2017-03-18T01:12:58.711Z,0
2017-03-18T01:13:39.318Z,0
2017-03-18T01:14:19.908Z,0
2017-03-18T01:15:00.509Z,0
2017-03-18T01:15:41.056Z,0
2017-03-18T01:16:21.644Z,0
2017-03-18T01:17:02.273Z,0
2017-03-18T01:17:42.854Z,0
2017-03-18T01:18:23.435Z,0
2017-03-18T01:19:04.056Z,0
2017-03-18T01:19:44.685Z,0
2017-03-18T01:20:25.291Z,0
2017-03-18T01:21:05.885Z,0
2017-03-18T01:21:46.473Z,0
2017-03-18T01:22:27.078Z,0
2017-03-18T01:23:07.703Z,0
2017-03-18T01:23:48.398Z,0
2017-03-18T01:24:28.970Z,0
2017-03-18T01:25:09.540Z,0
2017-03-18T01:25:50.123Z,0
2017-03-18T01:26:30.737Z,0
2017-03-18T01:27:11.717Z,0
2017-03-18T01:27:52.545Z,0
2017-03-18T01:28:33.182Z,0
2017-03-18T01:29:13.735Z,0
2017-03-18T01:29:54.305Z,0
2017-03-18T01:30:34.883Z,0
2017-03-18T01:31:15.483Z,0
2017-03-18T01:31:56.070Z,0
2017-03-18T01:32:36.687Z,0
2017-03-18T01:33:17.347Z,0
2017-03-18T01:33:57.996Z,0
2017-03-18T01:34:38.631Z,0
2017-03-18T01:35:19.209Z,0
2017-03-18T01:35:59.840Z,0
2017-03-18T01:36:40.424Z,0
2017-03-18T01:37:21.011Z,0
2017-03-18T01:38:01.609Z,0
2017-03-18T01:38:42.199Z,0
2017-03-18T01:39:22.775Z,0
2017-03-18T01:40:03.373Z,0
2017-03-18T01:40:43.971Z,0
2017-03-18T01:41:24.553Z,0
2017-03-18T01:42:05.169Z,0
2017-03-18T01:42:45.755Z,0
2017-03-18T01:43:26.347Z,0
2017-03-18T01:44:06.928Z,0
2017-03-18T01:44:47.509Z,0
2017-03-18T01:45:28.088Z,0
2017-03-18T01:46:08.671Z,0
2017-03-18T01:46:49.246Z,0
2017-03-18T01:47:29.883Z,0
2017-03-18T01:48:10.458Z,0
2017-03-18T01:48:51.051Z,0
2017-03-18T01:49:31.647Z,0
2017-03-18T01:50:12.243Z,0
2017-03-18T01:50:52.880Z,0
2017-03-18T01:51:33.475Z,0
2017-03-18T01:52:14.045Z,0
2017-03-18T01:52:54.635Z,0
2017-03-18T01:53:35.274Z,0
2017-03-18T01:54:15.880Z,0
2017-03-18T01:54:56.442Z,0
2017-03-18T01:55:37.361Z,0
2017-03-18T01:56:17.891Z,0
2017-03-18T01:56:58.497Z,0
2017-03-18T01:57:39.077Z,0
2017-03-18T01:58:19.647Z,0
2017-03-18T01:59:00.223Z,0
2017-03-18T01:59:40.831Z,0
2017-03-18T02:00:21.399Z,0
2017-03-18T02:01:01.972Z,0
2017-03-18T02:01:42.561Z,0
2017-03-18T02:02:23.140Z,0
2017-03-18T02:03:03.734Z,0
2017-03-18T02:03:44.346Z,0
2017-03-18T02:04:24.939Z,0
2017-03-18T02:05:05.555Z,0
2017-03-18T02:05:46.182Z,0
2017-03-18T02:06:26.764Z,0
2017-03-18T02:07:07.412Z,0
2017-03-18T02:07:47.957Z,0
2017-03-18T02:08:28.592Z,0
2017-03-18T02:09:09.154Z,0
2017-03-18T02:09:49.724Z,0
2017-03-18T02:10:30.301Z,0
2017-03-18T02:11:10.936Z,0
2017-03-18T02:11:51.507Z,0
2017-03-18T02:12:32.143Z,0
2017-03-18T02:13:12.726Z,0
2017-03-18T02:13:53.370Z,0
2017-03-18T02:14:33.947Z,0
2017-03-18T02:15:14.536Z,0
2017-03-18T02:15:55.131Z,0
2017-03-18T02:16:35.696Z,0
2017-03-18T02:17:16.295Z,0
2017-03-18T02:17:56.860Z,0
2017-03-18T02:18:37.438Z,0
2017-03-18T02:19:18.010Z,0
2017-03-18T02:19:58.616Z,0
2017-03-18T02:20:39.205Z,0
2017-03-18T02:21:19.794Z,0
2017-03-18T02:22:00.370Z,0
2017-03-18T02:22:41.007Z,0
2017-03-18T02:23:21.601Z,0
2017-03-18T02:24:02.203Z,0
2017-03-18T02:24:42.799Z,0
2017-03-18T02:25:23.432Z,0
2017-03-18T02:26:04.020Z,0
2017-03-18T02:26:44.612Z,0
2017-03-18T02:27:25.200Z,0
2017-03-18T02:28:05.780Z,0
2017-03-18T02:28:46.384Z,0
2017-03-18T02:29:26.980Z,0
2017-03-18T02:30:07.566Z,0
2017-03-18T02:30:48.166Z,0
2017-03-18T02:31:28.770Z,0
2017-03-18T02:32:09.387Z,0
2017-03-18T02:32:49.977Z,0
2017-03-18T02:33:30.585Z,0
2017-03-18T02:34:11.165Z,0
2017-03-18T02:34:51.751Z,0
2017-03-18T02:35:32.369Z,0
2017-03-18T02:36:12.952Z,0
2017-03-18T02:36:53.733Z,0
2017-03-18T02:37:34.353Z,0
2017-03-18T02:38:14.940Z,0
2017-03-18T02:38:55.505Z,0
2017-03-18T02:39:36.117Z,0
2017-03-18T02:40:16.721Z,0
2017-03-18T02:40:57.271Z,0
2017-03-18T02:41:37.891Z,0
2017-03-18T02:42:18.476Z,0
2017-03-18T02:42:59.121Z,0
2017-03-18T02:43:39.684Z,0
2017-03-18T02:44:20.231Z,0
2017-03-18T02:45:00.854Z,0
2017-03-18T02:45:41.631Z,0
2017-03-18T02:46:22.272Z,0
2017-03-18T02:47:02.845Z,0
2017-03-18T02:47:43.415Z,0
2017-03-18T02:48:24.015Z,0
2017-03-18T02:49:04.644Z,0
2017-03-18T02:49:45.177Z,0
2017-03-18T02:50:25.810Z,0
2017-03-18T02:51:06.373Z,0
2017-03-18T02:51:46.947Z,0
2017-03-18T02:52:27.555Z,0
2017-03-18T02:53:08.145Z,0
2017-03-18T02:53:48.765Z,0
2017-03-18T02:54:29.338Z,0
2017-03-18T02:55:09.909Z,0
2017-03-18T02:55:50.472Z,0
2017-03-18T02:56:31.048Z,0
2017-03-18T02:57:11.661Z,0
2017-03-18T02:57:52.277Z,0
2017-03-18T02:58:32.863Z,0
2017-03-18T02:59:13.432Z,0
2017-03-18T02:59:54.042Z,0
2017-03-18T03:00:34.645Z,0
2017-03-18T03:01:15.201Z,0
2017-03-18T03:01:55.785Z,0
2017-03-18T03:02:36.371Z,0
2017-03-18T03:03:16.936Z,0
2017-03-18T03:03:57.538Z,0
2017-03-18T03:04:38.140Z,0
2017-03-18T03:05:18.701Z,0
2017-03-18T03:05:59.344Z,0
2017-03-18T03:06:39.933Z,0
2017-03-18T03:07:20.546Z,0
2017-03-18T03:08:01.109Z,0
2017-03-18T03:08:41.706Z,0
2017-03-18T03:09:22.293Z,0
2017-03-18T03:10:02.889Z,0
2017-03-18T03:10:43.468Z,0
2017-03-18T03:11:24.069Z,0
2017-03-18T03:12:04.668Z,0
2017-03-18T03:12:45.267Z,0
2017-03-18T03:13:25.883Z,0
2017-03-18T03:14:06.500Z,0
2017-03-18T03:14:47.091Z,0
2017-03-18T03:15:27.676Z,0
2017-03-18T03:16:08.301Z,0
2017-03-18T03:16:48.891Z,0
2017-03-18T03:17:29.470Z,0
2017-03-18T03:18:10.073Z,0
2017-03-18T03:18:50.654Z,0
2017-03-18T03:19:31.254Z,0
2017-03-18T03:20:11.828Z,0
2017-03-18T03:20:52.427Z,0
2017-03-18T03:21:32.982Z,0
2017-03-18T03:22:13.545Z,0
2017-03-18T03:22:54.139Z,0
2017-03-18T03:23:34.760Z,0
2017-03-18T03:24:15.343Z,0
2017-03-18T03:24:55.930Z,0
2017-03-18T03:25:36.509Z,0
2017-03-18T03:26:17.077Z,0
2017-03-18T03:26:57.650Z,0
2017-03-18T03:27:38.235Z,0
2017-03-18T03:28:18.815Z,0
2017-03-18T03:28:59.423Z,0
2017-03-18T03:29:40.019Z,0
2017-03-18T03:30:20.590Z,0
2017-03-18T03:31:01.183Z,0
2017-03-18T03:31:41.752Z,0
2017-03-18T03:32:22.368Z,0
2017-03-18T03:33:02.956Z,0
2017-03-18T03:33:43.569Z,0
2017-03-18T03:34:24.147Z,0
2017-03-18T03:35:04.731Z,0
2017-03-18T03:35:45.319Z,0
2017-03-18T03:36:25.916Z,0
2017-03-18T03:37:06.502Z,0
2017-03-18T03:37:47.066Z,0
2017-03-18T03:38:27.658Z,0
2017-03-18T03:39:08.209Z,0
2017-03-18T03:39:48.820Z,0
2017-03-18T03:40:29.392Z,0
2017-03-18T03:41:09.970Z,0
2017-03-18T03:41:50.612Z,0
2017-03-18T03:42:31.196Z,0
2017-03-18T03:43:11.816Z,0
2017-03-18T03:43:52.387Z,0
2017-03-18T03:44:32.967Z,0
2017-03-18T03:45:13.550Z,0
2017-03-18T03:45:54.336Z,0
2017-03-18T03:46:34.922Z,0
2017-03-18T03:47:15.518Z,0
2017-03-18T03:47:56.095Z,0
2017-03-18T03:48:36.819Z,0
2017-03-18T03:49:17.412Z,0
2017-03-18T03:49:58.003Z,0
2017-03-18T03:50:38.874Z,0
2017-03-18T03:51:19.550Z,0
2017-03-18T03:52:00.429Z,0
2017-03-18T03:52:41.523Z,0
2017-03-18T03:53:22.314Z,0
2017-03-18T03:54:02.881Z,0
2017-03-18T03:54:43.471Z,0
2017-03-18T03:55:24.037Z,0
2017-03-18T03:56:04.597Z,0
2017-03-18T03:56:45.197Z,0
2017-03-18T03:57:25.864Z,0
2017-03-18T03:58:07.001Z,0
2017-03-18T03:58:47.946Z,0
2017-03-18T03:59:28.878Z,0
2017-03-18T04:00:09.869Z,0
2017-03-18T04:00:50.626Z,0
2017-03-18T04:01:31.191Z,0
2017-03-18T04:02:11.996Z,0
2017-03-18T04:02:52.824Z,0
2017-03-18T04:03:33.770Z,0
2017-03-18T04:04:14.339Z,0
2017-03-18T04:04:54.936Z,0
2017-03-18T04:05:35.940Z,0
2017-03-18T04:06:16.615Z,0
2017-03-18T04:06:57.189Z,0
2017-03-18T04:07:37.771Z,0
2017-03-18T04:08:18.355Z,0
2017-03-18T04:08:58.984Z,0
2017-03-18T04:09:39.572Z,0
2017-03-18T04:10:20.149Z,0
2017-03-18T04:11:00.731Z,0
2017-03-18T04:11:41.306Z,0
2017-03-18T04:12:21.897Z,0
2017-03-18T04:13:02.486Z,0
2017-03-18T04:13:43.062Z,0
2017-03-18T04:14:23.637Z,0
2017-03-18T04:15:04.226Z,0
2017-03-18T04:15:44.797Z,0
2017-03-18T04:16:25.379Z,0
2017-03-18T04:17:05.947Z,0
2017-03-18T04:17:46.520Z,0
2017-03-18T04:18:27.112Z,0
2017-03-18T04:19:07.680Z,0
2017-03-18T04:19:48.276Z,0
2017-03-18T04:20:28.865Z,0
2017-03-18T04:21:09.442Z,0
2017-03-18T04:21:50.019Z,0
2017-03-18T04:22:30.598Z,0
2017-03-18T04:23:11.175Z,0
2017-03-18T04:23:51.741Z,0
2017-03-18T04:24:32.339Z,0
2017-03-18T04:25:12.933Z,0
2017-03-18T04:25:53.509Z,0
2017-03-18T04:26:34.082Z,0
2017-03-18T04:27:14.650Z,0
2017-03-18T04:27:55.214Z,0
2017-03-18T04:28:35.793Z,0
2017-03-18T04:29:16.360Z,0
2017-03-18T04:29:56.937Z,0
2017-03-18T04:30:37.509Z,0
2017-03-18T04:31:18.068Z,0
2017-03-18T04:31:58.656Z,0
2017-03-18T04:32:39.225Z,0
2017-03-18T04:33:19.813Z,0
2017-03-18T04:34:00.379Z,0
2017-03-18T04:34:40.959Z,0
2017-03-18T04:35:21.522Z,0
2017-03-18T04:36:02.150Z,0
2017-03-18T04:36:42.702Z,0
2017-03-18T04:37:23.363Z,0
2017-03-18T04:38:03.927Z,0
2017-03-18T04:38:44.564Z,0
2017-03-18T04:39:25.134Z,0
2017-03-18T04:40:05.700Z,0
2017-03-18T04:40:46.283Z,0
2017-03-18T04:41:26.875Z,0
2017-03-18T04:42:07.457Z,0
2017-03-18T04:42:48.039Z,0
2017-03-18T04:43:28.647Z,0
2017-03-18T04:44:09.237Z,0
2017-03-18T04:44:49.885Z,0
2017-03-18T04:45:30.478Z,0
2017-03-18T04:46:11.048Z,0
2017-03-18T04:46:51.714Z,0
2017-03-18T04:47:32.302Z,0
2017-03-18T04:48:12.891Z,0
2017-03-18T04:48:53.465Z,0
2017-03-18T04:49:34.089Z,0
2017-03-18T04:50:14.713Z,0
2017-03-18T04:50:55.321Z,0
2017-03-18T04:51:35.934Z,0
2017-03-18T04:52:16.496Z,0
2017-03-18T04:52:57.125Z,0
2017-03-18T04:53:37.715Z,0
2017-03-18T04:54:18.285Z,0
2017-03-18T04:54:58.859Z,0
2017-03-18T04:55:39.448Z,0
2017-03-18T04:56:20.043Z,0
2017-03-18T04:57:00.650Z,0
2017-03-18T04:57:41.240Z,0
2017-03-18T04:58:21.886Z,0
2017-03-18T04:59:02.884Z,0
2017-03-18T04:59:44.270Z,0
2017-03-18T05:00:25.625Z,0
2017-03-18T05:01:06.354Z,0
2017-03-18T05:01:46.950Z,0
2017-03-18T05:02:27.552Z,0
2017-03-18T05:03:08.127Z,0
2017-03-18T05:03:48.734Z,0
2017-03-18T05:04:29.329Z,0
2017-03-18T05:05:09.890Z,0
2017-03-18T05:05:50.471Z,0
2017-03-18T05:06:31.062Z,0
2017-03-18T05:07:11.638Z,0
2017-03-18T05:07:52.212Z,0
2017-03-18T05:08:32.815Z,0
2017-03-18T05:09:13.405Z,0
2017-03-18T05:09:54.028Z,0
2017-03-18T05:10:34.669Z,0
2017-03-18T05:11:15.244Z,0
2017-03-18T05:11:55.830Z,0
2017-03-18T05:12:36.431Z,0
2017-03-18T05:13:17.019Z,0
2017-03-18T05:13:57.648Z,0
2017-03-18T05:14:38.238Z,0
2017-03-18T05:15:18.861Z,0
2017-03-18T05:15:59.447Z,0
2017-03-18T05:16:40.029Z,0
2017-03-18T05:17:20.613Z,0
2017-03-18T05:18:01.193Z,0
2017-03-18T05:18:41.871Z,0
2017-03-18T05:19:22.420Z,0
2017-03-18T05:20:03.001Z,0
2017-03-18T05:20:43.638Z,0
2017-03-18T05:21:24.252Z,0
2017-03-18T05:22:04.845Z,0
2017-03-18T05:22:45.440Z,0
2017-03-18T05:23:26.016Z,0
2017-03-18T05:24:06.598Z,0
2017-03-18T05:24:47.214Z,0
2017-03-18T05:25:27.758Z,0
2017-03-18T05:26:08.346Z,0
2017-03-18T05:26:48.943Z,0
2017-03-18T05:27:29.562Z,0
2017-03-18T05:28:10.140Z,0
2017-03-18T05:28:50.734Z,0
2017-03-18T05:29:31.310Z,0
2017-03-18T05:30:11.877Z,0
2017-03-18T05:30:52.450Z,0
2017-03-18T05:31:33.020Z,0
2017-03-18T05:32:13.592Z,0
2017-03-18T05:32:54.183Z,0
2017-03-18T05:33:34.774Z,0
2017-03-18T05:34:15.350Z,0
2017-03-18T05:34:56.014Z,0
2017-03-18T05:35:36.589Z,0
2017-03-18T05:36:17.206Z,0
2017-03-18T05:36:57.773Z,0
2017-03-18T05:37:38.369Z,0
2017-03-18T05:38:18.965Z,0
2017-03-18T05:38:59.588Z,0
2017-03-18T05:39:40.221Z,0
2017-03-18T05:40:20.817Z,0
2017-03-18T05:41:01.423Z,0
2017-03-18T05:41:42.030Z,0
2017-03-18T05:42:22.636Z,0
2017-03-18T05:43:03.206Z,0
2017-03-18T05:43:43.781Z,0
2017-03-18T05:44:24.632Z,0
2017-03-18T05:45:05.242Z,0
2017-03-18T05:45:45.822Z,0
2017-03-18T05:46:26.390Z,0
2017-03-18T05:47:06.982Z,0
2017-03-18T05:47:47.569Z,0
2017-03-18T05:48:28.149Z,0
2017-03-18T05:49:08.755Z,0
2017-03-18T05:49:49.352Z,0
2017-03-18T05:50:29.968Z,0
2017-03-18T05:51:10.577Z,0
2017-03-18T05:51:51.230Z,0
2017-03-18T05:52:31.783Z,0
2017-03-18T05:53:12.359Z,0
2017-03-18T05:53:52.946Z,0
2017-03-18T05:54:33.594Z,0
2017-03-18T05:55:14.241Z,0
2017-03-18T05:55:54.819Z,0
2017-03-18T05:56:35.430Z,0
2017-03-18T05:57:16.074Z,0
2017-03-18T05:57:56.713Z,0
2017-03-18T05:58:37.257Z,0
2017-03-18T05:59:17.834Z,0
2017-03-18T05:59:58.438Z,0
2017-03-18T06:00:39.053Z,0
2017-03-18T06:01:19.640Z,0
2017-03-18T06:02:00.245Z,0
2017-03-18T06:02:40.840Z,0
2017-03-18T06:03:21.419Z,0
2017-03-18T06:04:02.034Z,0
2017-03-18T06:04:42.599Z,0
2017-03-18T06:05:23.415Z,0
2017-03-18T06:06:03.999Z,0
2017-03-18T06:06:44.615Z,0
2017-03-18T06:07:25.166Z,0
2017-03-18T06:08:05.761Z,0
2017-03-18T06:08:46.357Z,0
2017-03-18T06:09:26.947Z,0
2017-03-18T06:10:07.560Z,0
2017-03-18T06:10:48.115Z,0
2017-03-18T06:11:28.696Z,0
2017-03-18T06:12:09.292Z,0
2017-03-18T06:12:49.864Z,0
2017-03-18T06:13:30.446Z,0
2017-03-18T06:14:11.013Z,0
2017-03-18T06:14:51.591Z,0
2017-03-18T06:15:32.169Z,0
2017-03-18T06:16:12.770Z,0
2017-03-18T06:16:53.440Z,0
2017-03-18T06:17:34.037Z,0
2017-03-18T06:18:14.642Z,0
2017-03-18T06:18:55.256Z,0
2017-03-18T06:19:35.807Z,0
2017-03-18T06:20:16.399Z,0
2017-03-18T06:20:57.003Z,0
2017-03-18T06:21:38.461Z,0
2017-03-18T06:22:19.020Z,5
2017-03-18T06:22:59.598Z,5
2017-03-18T06:23:40.190Z,5
2017-03-18T06:24:20.786Z,5
2017-03-18T06:25:01.354Z,5
2017-03-18T06:25:41.984Z,5
2017-03-18T06:26:22.579Z,5
2017-03-18T06:27:03.178Z,5
2017-03-18T06:27:43.752Z,0
2017-03-18T06:28:24.340Z,0
2017-03-18T06:29:04.946Z,0
2017-03-18T06:29:45.597Z,0
2017-03-18T06:30:26.157Z,0
2017-03-18T06:31:06.744Z,0
2017-03-18T06:31:47.381Z,0
2017-03-18T06:32:27.990Z,0
2017-03-18T06:33:08.621Z,5
2017-03-18T06:33:49.207Z,0
2017-03-18T06:34:29.827Z,0
2017-03-18T06:35:10.441Z,0
2017-03-18T06:35:51.197Z,0
2017-03-18T06:36:32.210Z,0
2017-03-18T06:37:12.987Z,5
2017-03-18T06:37:53.575Z,5
2017-03-18T06:38:34.171Z,5
2017-03-18T06:39:14.723Z,5
2017-03-18T06:39:55.368Z,5
2017-03-18T06:40:35.945Z,5
2017-03-18T06:41:16.561Z,5
2017-03-18T06:41:57.133Z,10
2017-03-18T06:42:37.850Z,10
2017-03-18T06:43:18.448Z,10
2017-03-18T06:43:59.078Z,15
2017-03-18T06:44:39.653Z,25
2017-03-18T06:45:20.252Z,20
2017-03-18T06:46:00.902Z,10
2017-03-18T06:46:41.463Z,10
2017-03-18T06:47:22.080Z,5
2017-03-18T06:48:02.678Z,0
2017-03-18T06:48:43.253Z,0
2017-03-18T06:49:24.047Z,0
2017-03-18T06:50:04.613Z,5
2017-03-18T06:50:45.181Z,5
2017-03-18T06:51:25.774Z,5
2017-03-18T06:52:06.546Z,5
2017-03-18T06:52:47.038Z,5
2017-03-18T06:53:27.613Z,5
2017-03-18T06:54:08.254Z,5
2017-03-18T06:54:48.861Z,10
2017-03-18T06:55:29.465Z,10
2017-03-18T06:56:10.039Z,10
2017-03-18T06:56:50.680Z,10
2017-03-18T06:57:31.245Z,10
2017-03-18T06:58:11.868Z,15
2017-03-18T06:58:52.480Z,15
2017-03-18T06:59:33.064Z,15
2017-03-18T07:00:13.631Z,10
2017-03-18T07:00:54.275Z,10
2017-03-18T07:01:34.865Z,10
2017-03-18T07:02:15.446Z,10
2017-03-18T07:02:56.046Z,10
2017-03-18T07:03:36.632Z,10
2017-03-18T07:04:17.221Z,5
2017-03-18T07:04:57.822Z,5
2017-03-18T07:05:38.420Z,5
2017-03-18T07:06:19.029Z,5
2017-03-18T07:06:59.649Z,5
2017-03-18T07:07:40.235Z,5
2017-03-18T07:08:20.842Z,10
2017-03-18T07:09:01.453Z,10
2017-03-18T07:09:42.031Z,10
2017-03-18T07:10:22.612Z,15
2017-03-18T07:11:03.228Z,15
2017-03-18T07:11:43.804Z,10
2017-03-18T07:12:24.415Z,10
2017-03-18T07:13:05.085Z,10
2017-03-18T07:13:45.670Z,5
2017-03-18T07:14:26.309Z,5
2017-03-18T07:15:07.111Z,10
2017-03-18T07:15:47.699Z,10
2017-03-18T07:16:28.323Z,5
2017-03-18T07:17:08.891Z,5
2017-03-18T07:17:49.469Z,5
2017-03-18T07:18:30.120Z,5
2017-03-18T07:19:10.695Z,5
2017-03-18T07:19:51.281Z,5
2017-03-18T07:20:31.906Z,5
2017-03-18T07:21:12.516Z,5
2017-03-18T07:21:53.118Z,5
2017-03-18T07:22:33.752Z,5
2017-03-18T07:23:14.448Z,5
2017-03-18T07:23:55.051Z,5
2017-03-18T07:24:35.816Z,5
2017-03-18T07:25:16.451Z,5
2017-03-18T07:25:57.084Z,5
2017-03-18T07:26:37.664Z,5
2017-03-18T07:27:18.286Z,10
2017-03-18T07:27:59.262Z,5
2017-03-18T07:28:39.849Z,5
2017-03-18T07:29:20.600Z,5
2017-03-18T07:30:01.221Z,5
2017-03-18T07:30:41.891Z,5
2017-03-18T07:31:22.506Z,5
2017-03-18T07:32:03.119Z,5
2017-03-18T07:32:43.757Z,5
2017-03-18T07:33:24.535Z,5
2017-03-18T07:34:05.697Z,5
2017-03-18T07:34:46.461Z,5
2017-03-18T07:35:27.260Z,10
2017-03-18T07:36:08.787Z,15
2017-03-18T07:36:49.532Z,20
2017-03-18T07:37:31.724Z,25
2017-03-18T07:38:12.662Z,15
2017-03-18T07:38:53.279Z,15
2017-03-18T07:39:33.900Z,20
2017-03-18T07:40:14.526Z,15
2017-03-18T07:40:55.126Z,15
2017-03-18T07:41:35.725Z,15
2017-03-18T07:42:16.320Z,15
2017-03-18T07:42:56.914Z,15
2017-03-18T07:43:37.510Z,15
2017-03-18T07:44:18.104Z,15
2017-03-18T07:44:58.693Z,10
2017-03-18T07:45:39.291Z,15
2017-03-18T07:46:19.876Z,15
2017-03-18T07:47:00.469Z,15
2017-03-18T07:47:41.074Z,15
2017-03-18T07:48:21.737Z,15
2017-03-18T07:49:02.304Z,15
2017-03-18T07:49:42.876Z,15
2017-03-18T07:50:23.496Z,15
2017-03-18T07:51:04.098Z,10
2017-03-18T07:51:44.669Z,15
2017-03-18T07:52:25.236Z,15
2017-03-18T07:53:05.850Z,20
2017-03-18T07:53:46.479Z,20
2017-03-18T07:54:27.019Z,25
2017-03-18T07:55:07.606Z,20
2017-03-18T07:55:48.197Z,20
2017-03-18T07:56:28.800Z,15
2017-03-18T07:57:09.380Z,15
2017-03-18T07:57:49.978Z,20
2017-03-18T07:58:30.586Z,20
2017-03-18T07:59:11.158Z,20
2017-03-18T07:59:51.746Z,20
2017-03-18T08:00:32.342Z,15
2017-03-18T08:01:12.952Z,15
2017-03-18T08:01:53.564Z,10
2017-03-18T08:02:34.150Z,15
2017-03-18T08:03:14.784Z,25
2017-03-18T08:03:55.410Z,25
2017-03-18T08:04:36.029Z,25
2017-03-18T08:05:16.644Z,25
2017-03-18T08:05:57.247Z,25
2017-03-18T08:06:37.839Z,35
2017-03-18T08:07:18.427Z,40
2017-03-18T08:07:58.996Z,45
2017-03-18T08:08:39.580Z,45
2017-03-18T08:09:20.156Z,35
2017-03-18T08:10:00.787Z,20
2017-03-18T08:10:41.381Z,20
2017-03-18T08:11:21.977Z,20
2017-03-18T08:12:02.559Z,20
2017-03-18T08:12:43.165Z,20
2017-03-18T08:13:23.755Z,20
2017-03-18T08:14:04.402Z,20
2017-03-18T08:14:44.996Z,25
2017-03-18T08:15:25.572Z,25
2017-03-18T08:16:06.145Z,30
2017-03-18T08:16:46.745Z,30
2017-03-18T08:17:27.327Z,35
2017-03-18T08:18:07.926Z,30
2017-03-18T08:18:48.609Z,30
2017-03-18T08:19:29.207Z,40
2017-03-18T08:20:09.804Z,35
2017-03-18T08:20:50.400Z,60
2017-03-18T08:21:30.985Z,50
2017-03-18T08:22:11.590Z,30
2017-03-18T08:22:52.192Z,30
2017-03-18T08:23:32.797Z,35
2017-03-18T08:24:21.088Z,50
2017-03-18T08:25:13.374Z,40
2017-03-18T08:25:54.636Z,35
2017-03-18T08:26:35.215Z,25
2017-03-18T08:27:15.823Z,20
2017-03-18T08:27:56.518Z,20
2017-03-18T08:28:38.216Z,20
2017-03-18T08:29:18.784Z,25
2017-03-18T08:29:59.433Z,25
2017-03-18T08:30:40.500Z,30
2017-03-18T08:31:22.418Z,35
2017-03-18T08:32:02.572Z,40
2017-03-18T08:32:43.137Z,45
2017-03-18T08:33:25.166Z,40
2017-03-18T08:34:05.806Z,30
2017-03-18T08:34:46.396Z,40
2017-03-18T08:35:27.060Z,55
2017-03-18T08:36:07.612Z,90
2017-03-18T08:36:48.226Z,80
2017-03-18T08:37:28.832Z,95
2017-03-18T08:38:09.488Z,80
2017-03-18T08:38:50.269Z,55
2017-03-18T08:39:30.908Z,55
2017-03-18T08:40:11.489Z,55
2017-03-18T08:40:52.121Z,60
2017-03-18T08:41:32.807Z,35
2017-03-18T08:42:13.488Z,30
2017-03-18T08:42:54.078Z,30
2017-03-18T08:43:34.661Z,35
2017-03-18T08:44:15.292Z,35
2017-03-18T08:44:55.954Z,40
2017-03-18T08:45:36.556Z,45
2017-03-18T08:46:17.122Z,35
2017-03-18T08:46:57.711Z,35
2017-03-18T08:47:38.397Z,40
2017-03-18T08:48:18.934Z,45
2017-03-18T08:48:59.598Z,35
2017-03-18T08:49:40.243Z,30
2017-03-18T08:50:20.865Z,40
2017-03-18T08:51:01.461Z,50
2017-03-18T08:51:42.064Z,50
2017-03-18T08:52:22.666Z,65
2017-03-18T08:53:03.293Z,90
2017-03-18T08:53:43.905Z,95
2017-03-18T08:54:24.621Z,95
2017-03-18T08:55:08.105Z,70
2017-03-18T08:55:48.756Z,50
2017-03-18T08:56:29.815Z,50
2017-03-18T08:57:10.716Z,45
2017-03-18T08:57:51.432Z,40
2017-03-18T08:58:32.071Z,35
2017-03-18T08:59:12.694Z,55
2017-03-18T08:59:53.314Z,45
2017-03-18T09:00:33.900Z,45
2017-03-18T09:01:14.551Z,45
2017-03-18T09:01:55.152Z,35
2017-03-18T09:02:35.755Z,30
2017-03-18T09:03:16.804Z,25
2017-03-18T09:03:57.396Z,25
2017-03-18T09:04:38.004Z,35
2017-03-18T09:05:18.652Z,35
2017-03-18T09:05:59.267Z,30
2017-03-18T09:06:40.003Z,20
2017-03-18T09:07:20.667Z,20
2017-03-18T09:08:01.343Z,20
2017-03-18T09:08:42.031Z,20
2017-03-18T09:09:22.626Z,30
2017-03-18T09:10:03.201Z,40
2017-03-18T09:10:43.864Z,55
2017-03-18T09:11:24.504Z,65
2017-03-18T09:12:05.111Z,60
2017-03-18T09:12:45.742Z,50
2017-03-18T09:13:26.358Z,50
2017-03-18T09:14:07.031Z,65
2017-03-18T09:14:47.613Z,80
2017-03-18T09:15:28.235Z,100
2017-03-18T09:16:08.885Z,110
2017-03-18T09:16:49.560Z,75
2017-03-18T09:17:30.149Z,55
2017-03-18T09:18:10.765Z,35
2017-03-18T09:18:51.371Z,30
2017-03-18T09:19:32.043Z,35
2017-03-18T09:20:12.811Z,30
2017-03-18T09:20:53.598Z,25
2017-03-18T09:21:34.108Z,25
2017-03-18T09:22:14.716Z,30
2017-03-18T09:22:55.473Z,50
2017-03-18T09:23:36.047Z,70
2017-03-18T09:24:16.673Z,70
2017-03-18T09:24:57.290Z,50
2017-03-18T09:25:37.911Z,55
2017-03-18T09:26:18.529Z,60
2017-03-18T09:26:59.139Z,65
2017-03-18T09:27:39.738Z,70
2017-03-18T09:28:20.350Z,75
2017-03-18T09:29:00.930Z,65
2017-03-18T09:29:41.574Z,45
2017-03-18T09:30:22.175Z,40
2017-03-18T09:31:02.830Z,35
2017-03-18T09:31:43.485Z,35
2017-03-18T09:32:24.130Z,40
2017-03-18T09:33:04.757Z,50
2017-03-18T09:33:45.378Z,40
2017-03-18T09:34:26.049Z,40
2017-03-18T09:35:06.906Z,45
2017-03-18T09:35:47.746Z,65
2017-03-18T09:36:28.356Z,60
2017-03-18T09:37:08.955Z,45
2017-03-18T09:37:49.618Z,35
2017-03-18T09:38:30.210Z,30
2017-03-18T09:39:13.657Z,25
2017-03-18T09:39:54.351Z,20
2017-03-18T09:40:35.491Z,25
2017-03-18T09:41:16.323Z,25
2017-03-18T09:41:56.973Z,35
2017-03-18T09:42:37.568Z,40
2017-03-18T09:43:18.221Z,35
2017-03-18T09:43:58.828Z,30
2017-03-18T09:44:39.432Z,45
2017-03-18T09:45:20.042Z,35
2017-03-18T09:46:00.649Z,45
2017-03-18T09:46:41.260Z,60
2017-03-18T09:47:21.887Z,60
2017-03-18T09:48:02.532Z,65
2017-03-18T09:48:43.187Z,65
2017-03-18T09:49:23.796Z,60
2017-03-18T09:50:04.457Z,50
2017-03-18T09:50:45.720Z,65
2017-03-18T09:51:26.267Z,75
2017-03-18T09:52:06.928Z,80
2017-03-18T09:52:47.526Z,85
2017-03-18T09:53:28.174Z,75
2017-03-18T09:54:08.806Z,80
2017-03-18T09:54:49.418Z,85
2017-03-18T09:55:30.071Z,70